sensor_id;sensor_type;location;lat;lon;timestamp;P1;durP1;ratioP1;P2;durP2;ratioP2
19347;SDS011;9810;52.480;9.806;2024-03-02T00:00:11;14.20;;;8.07;;
19347;SDS011;9810;52.480;9.806;2024-03-02T00:02:39;13.20;;;8.37;;
19347;SDS011;9810;52.480;9.806;2024-03-02T00:05:07;12.97;;;8.57;;
19347;SDS011;9810;52.480;9.806;2024-03-02T00:07:34;14.80;;;8.93;;
19347;SDS011;9810;52.480;9.806;2024-03-02T00:10:02;12.50;;;8.70;;
19347;SDS011;9810;52.480;9.806;2024-03-02T00:12:37;11.33;;;8.20;;
19347;SDS011;9810;52.480;9.806;2024-03-02T00:15:05;11.30;;;8.20;;
19347;SDS011;9810;52.480;9.806;2024-03-02T00:17:51;12.13;;;8.13;;
19347;SDS011;9810;52.480;9.806;2024-03-02T00:20:20;11.47;;;8.60;;
19347;SDS011;9810;52.480;9.806;2024-03-02T00:22:49;11.90;;;8.60;;
19347;SDS011;9810;52.480;9.806;2024-03-02T00:25:16;18.23;;;9.47;;
19347;SDS011;9810;52.480;9.806;2024-03-02T00:27:47;13.53;;;8.20;;
19347;SDS011;9810;52.480;9.806;2024-03-02T00:30:26;15.70;;;8.70;;
19347;SDS011;9810;52.480;9.806;2024-03-02T00:33:12;16.57;;;8.77;;
19347;SDS011;9810;52.480;9.806;2024-03-02T00:35:39;15.13;;;9.13;;
19347;SDS011;9810;52.480;9.806;2024-03-02T00:38:06;14.10;;;8.60;;
19347;SDS011;9810;52.480;9.806;2024-03-02T00:40:33;15.77;;;9.07;;
19347;SDS011;9810;52.480;9.806;2024-03-02T00:43:02;13.67;;;9.10;;
19347;SDS011;9810;52.480;9.806;2024-03-02T00:45:29;14.13;;;8.83;;
19347;SDS011;9810;52.480;9.806;2024-03-02T00:47:56;12.50;;;8.97;;
19347;SDS011;9810;52.480;9.806;2024-03-02T00:50:23;14.63;;;9.67;;
19347;SDS011;9810;52.480;9.806;2024-03-02T00:52:50;13.40;;;8.90;;
19347;SDS011;9810;52.480;9.806;2024-03-02T00:55:17;14.23;;;9.97;;
19347;SDS011;9810;52.480;9.806;2024-03-02T00:57:46;14.77;;;9.97;;
19347;SDS011;9810;52.480;9.806;2024-03-02T01:00:16;13.67;;;9.30;;
19347;SDS011;9810;52.480;9.806;2024-03-02T01:02:43;13.80;;;9.40;;
19347;SDS011;9810;52.480;9.806;2024-03-02T01:05:11;16.87;;;9.93;;
19347;SDS011;9810;52.480;9.806;2024-03-02T01:07:38;16.13;;;10.60;;
19347;SDS011;9810;52.480;9.806;2024-03-02T01:10:05;16.30;;;10.20;;
19347;SDS011;9810;52.480;9.806;2024-03-02T01:12:35;14.57;;;9.73;;
19347;SDS011;9810;52.480;9.806;2024-03-02T01:15:02;16.47;;;10.23;;
19347;SDS011;9810;52.480;9.806;2024-03-02T01:17:34;17.73;;;9.90;;
19347;SDS011;9810;52.480;9.806;2024-03-02T01:20:01;17.37;;;10.43;;
19347;SDS011;9810;52.480;9.806;2024-03-02T01:22:29;21.23;;;10.23;;
19347;SDS011;9810;52.480;9.806;2024-03-02T01:24:56;18.23;;;9.73;;
19347;SDS011;9810;52.480;9.806;2024-03-02T01:27:23;17.47;;;10.30;;
19347;SDS011;9810;52.480;9.806;2024-03-02T01:29:50;16.73;;;10.63;;
19347;SDS011;9810;52.480;9.806;2024-03-02T01:32:17;15.47;;;9.90;;
19347;SDS011;9810;52.480;9.806;2024-03-02T01:34:46;14.67;;;10.10;;
19347;SDS011;9810;52.480;9.806;2024-03-02T01:37:13;17.97;;;10.13;;
19347;SDS011;9810;52.480;9.806;2024-03-02T01:39:40;17.77;;;11.30;;
19347;SDS011;9810;52.480;9.806;2024-03-02T01:42:06;15.40;;;10.53;;
19347;SDS011;9810;52.480;9.806;2024-03-02T01:44:35;16.27;;;10.07;;
19347;SDS011;9810;52.480;9.806;2024-03-02T01:47:02;16.33;;;10.60;;
19347;SDS011;9810;52.480;9.806;2024-03-02T01:49:29;17.00;;;10.70;;
19347;SDS011;9810;52.480;9.806;2024-03-02T01:51:59;14.00;;;10.07;;
19347;SDS011;9810;52.480;9.806;2024-03-02T01:54:26;15.80;;;10.80;;
19347;SDS011;9810;52.480;9.806;2024-03-02T01:56:53;19.43;;;11.33;;
19347;SDS011;9810;52.480;9.806;2024-03-02T01:59:20;20.37;;;10.90;;
19347;SDS011;9810;52.480;9.806;2024-03-02T02:01:47;18.03;;;10.47;;
19347;SDS011;9810;52.480;9.806;2024-03-02T02:04:14;14.37;;;9.97;;
19347;SDS011;9810;52.480;9.806;2024-03-02T02:06:41;17.83;;;12.03;;
19347;SDS011;9810;52.480;9.806;2024-03-02T02:09:12;16.70;;;10.57;;
19347;SDS011;9810;52.480;9.806;2024-03-02T02:11:39;13.00;;;9.53;;
19347;SDS011;9810;52.480;9.806;2024-03-02T02:14:06;19.53;;;11.50;;
19347;SDS011;9810;52.480;9.806;2024-03-02T02:16:33;15.27;;;10.20;;
19347;SDS011;9810;52.480;9.806;2024-03-02T02:19:00;18.50;;;12.23;;
19347;SDS011;9810;52.480;9.806;2024-03-02T02:21:28;19.90;;;10.93;;
19347;SDS011;9810;52.480;9.806;2024-03-02T02:23:55;22.47;;;11.80;;
19347;SDS011;9810;52.480;9.806;2024-03-02T02:26:22;17.50;;;11.60;;
19347;SDS011;9810;52.480;9.806;2024-03-02T02:28:49;17.87;;;10.90;;
19347;SDS011;9810;52.480;9.806;2024-03-02T02:31:16;19.93;;;11.17;;
19347;SDS011;9810;52.480;9.806;2024-03-02T02:33:43;22.03;;;13.70;;
19347;SDS011;9810;52.480;9.806;2024-03-02T02:36:10;19.27;;;12.93;;
19347;SDS011;9810;52.480;9.806;2024-03-02T02:38:40;21.60;;;12.60;;
19347;SDS011;9810;52.480;9.806;2024-03-02T02:41:11;20.20;;;11.90;;
19347;SDS011;9810;52.480;9.806;2024-03-02T02:43:38;21.57;;;12.33;;
19347;SDS011;9810;52.480;9.806;2024-03-02T02:46:06;19.37;;;11.93;;
19347;SDS011;9810;52.480;9.806;2024-03-02T02:48:32;20.00;;;12.73;;
19347;SDS011;9810;52.480;9.806;2024-03-02T02:51:00;24.00;;;12.70;;
19347;SDS011;9810;52.480;9.806;2024-03-02T02:53:27;20.90;;;11.67;;
19347;SDS011;9810;52.480;9.806;2024-03-02T02:55:56;24.00;;;13.23;;
19347;SDS011;9810;52.480;9.806;2024-03-02T02:58:23;23.37;;;13.37;;
19347;SDS011;9810;52.480;9.806;2024-03-02T03:00:50;20.60;;;11.50;;
19347;SDS011;9810;52.480;9.806;2024-03-02T03:03:17;25.37;;;14.67;;
19347;SDS011;9810;52.480;9.806;2024-03-02T03:05:44;23.00;;;13.60;;
19347;SDS011;9810;52.480;9.806;2024-03-02T03:08:10;23.03;;;12.23;;
19347;SDS011;9810;52.480;9.806;2024-03-02T03:10:37;27.87;;;14.67;;
19347;SDS011;9810;52.480;9.806;2024-03-02T03:13:06;18.60;;;11.23;;
19347;SDS011;9810;52.480;9.806;2024-03-02T03:15:34;21.10;;;11.37;;
19347;SDS011;9810;52.480;9.806;2024-03-02T03:18:01;22.20;;;12.20;;
19347;SDS011;9810;52.480;9.806;2024-03-02T03:20:29;25.47;;;13.47;;
19347;SDS011;9810;52.480;9.806;2024-03-02T03:22:56;22.43;;;13.37;;
19347;SDS011;9810;52.480;9.806;2024-03-02T03:25:23;22.17;;;12.10;;
19347;SDS011;9810;52.480;9.806;2024-03-02T03:27:50;23.27;;;11.60;;
19347;SDS011;9810;52.480;9.806;2024-03-02T03:30:19;22.33;;;12.30;;
19347;SDS011;9810;52.480;9.806;2024-03-02T03:32:46;25.83;;;12.33;;
19347;SDS011;9810;52.480;9.806;2024-03-02T03:35:14;21.13;;;12.47;;
19347;SDS011;9810;52.480;9.806;2024-03-02T03:37:41;19.10;;;11.77;;
19347;SDS011;9810;52.480;9.806;2024-03-02T03:40:08;21.93;;;12.30;;
19347;SDS011;9810;52.480;9.806;2024-03-02T03:42:35;21.03;;;12.33;;
19347;SDS011;9810;52.480;9.806;2024-03-02T03:45:02;20.23;;;11.67;;
19347;SDS011;9810;52.480;9.806;2024-03-02T03:47:32;22.47;;;12.07;;
19347;SDS011;9810;52.480;9.806;2024-03-02T03:49:59;20.03;;;11.90;;
19347;SDS011;9810;52.480;9.806;2024-03-02T03:52:26;23.57;;;12.33;;
19347;SDS011;9810;52.480;9.806;2024-03-02T03:54:53;18.73;;;11.53;;
19347;SDS011;9810;52.480;9.806;2024-03-02T03:57:20;17.40;;;10.67;;
19347;SDS011;9810;52.480;9.806;2024-03-02T03:59:47;20.40;;;11.60;;
19347;SDS011;9810;52.480;9.806;2024-03-02T04:02:14;18.10;;;10.90;;
19347;SDS011;9810;52.480;9.806;2024-03-02T04:04:42;18.33;;;10.97;;
19347;SDS011;9810;52.480;9.806;2024-03-02T04:07:09;18.93;;;11.27;;
19347;SDS011;9810;52.480;9.806;2024-03-02T04:09:36;21.13;;;11.50;;
19347;SDS011;9810;52.480;9.806;2024-03-02T04:12:03;21.73;;;12.70;;
19347;SDS011;9810;52.480;9.806;2024-03-02T04:14:31;21.40;;;11.37;;
19347;SDS011;9810;52.480;9.806;2024-03-02T04:16:58;18.87;;;11.60;;
19347;SDS011;9810;52.480;9.806;2024-03-02T04:19:25;22.13;;;12.40;;
19347;SDS011;9810;52.480;9.806;2024-03-02T04:21:54;19.27;;;12.07;;
19347;SDS011;9810;52.480;9.806;2024-03-02T04:24:20;20.27;;;12.40;;
19347;SDS011;9810;52.480;9.806;2024-03-02T04:26:47;23.03;;;12.60;;
19347;SDS011;9810;52.480;9.806;2024-03-02T04:29:15;24.53;;;11.80;;
19347;SDS011;9810;52.480;9.806;2024-03-02T04:31:42;19.63;;;12.17;;
19347;SDS011;9810;52.480;9.806;2024-03-02T04:34:09;18.93;;;12.10;;
19347;SDS011;9810;52.480;9.806;2024-03-02T04:36:36;20.93;;;11.77;;
19347;SDS011;9810;52.480;9.806;2024-03-02T04:39:05;26.53;;;13.20;;
19347;SDS011;9810;52.480;9.806;2024-03-02T04:41:34;25.67;;;13.20;;
19347;SDS011;9810;52.480;9.806;2024-03-02T04:44:03;22.57;;;12.43;;
19347;SDS011;9810;52.480;9.806;2024-03-02T04:46:33;20.87;;;12.20;;
19347;SDS011;9810;52.480;9.806;2024-03-02T04:49:00;21.70;;;12.27;;
19347;SDS011;9810;52.480;9.806;2024-03-02T04:51:27;20.57;;;12.57;;
19347;SDS011;9810;52.480;9.806;2024-03-02T04:53:54;22.20;;;12.90;;
19347;SDS011;9810;52.480;9.806;2024-03-02T04:56:22;22.90;;;13.13;;
19347;SDS011;9810;52.480;9.806;2024-03-02T04:59:14;23.10;;;13.40;;
19347;SDS011;9810;52.480;9.806;2024-03-02T05:01:41;22.50;;;12.50;;
19347;SDS011;9810;52.480;9.806;2024-03-02T05:04:08;21.03;;;12.10;;
19347;SDS011;9810;52.480;9.806;2024-03-02T05:06:36;26.50;;;13.63;;
19347;SDS011;9810;52.480;9.806;2024-03-02T05:09:04;25.87;;;12.90;;
19347;SDS011;9810;52.480;9.806;2024-03-02T05:11:33;21.57;;;12.80;;
19347;SDS011;9810;52.480;9.806;2024-03-02T05:14:34;23.37;;;13.07;;
19347;SDS011;9810;52.480;9.806;2024-03-02T05:17:02;25.83;;;13.63;;
19347;SDS011;9810;52.480;9.806;2024-03-02T05:19:29;23.60;;;13.97;;
19347;SDS011;9810;52.480;9.806;2024-03-02T05:21:56;26.03;;;14.67;;
19347;SDS011;9810;52.480;9.806;2024-03-02T05:24:23;23.20;;;13.30;;
19347;SDS011;9810;52.480;9.806;2024-03-02T05:26:53;21.30;;;13.27;;
19347;SDS011;9810;52.480;9.806;2024-03-02T05:29:20;27.77;;;14.40;;
19347;SDS011;9810;52.480;9.806;2024-03-02T05:31:48;23.73;;;13.83;;
19347;SDS011;9810;52.480;9.806;2024-03-02T05:34:15;26.67;;;13.67;;
19347;SDS011;9810;52.480;9.806;2024-03-02T05:36:41;24.20;;;13.47;;
19347;SDS011;9810;52.480;9.806;2024-03-02T05:39:08;25.60;;;13.80;;
19347;SDS011;9810;52.480;9.806;2024-03-02T05:41:35;26.30;;;14.67;;
19347;SDS011;9810;52.480;9.806;2024-03-02T05:44:05;26.00;;;14.00;;
19347;SDS011;9810;52.480;9.806;2024-03-02T05:46:32;25.40;;;13.97;;
19347;SDS011;9810;52.480;9.806;2024-03-02T05:48:59;23.10;;;13.53;;
19347;SDS011;9810;52.480;9.806;2024-03-02T05:51:26;24.47;;;13.90;;
19347;SDS011;9810;52.480;9.806;2024-03-02T05:53:53;27.07;;;14.33;;
19347;SDS011;9810;52.480;9.806;2024-03-02T05:56:20;22.03;;;13.10;;
19347;SDS011;9810;52.480;9.806;2024-03-02T05:58:47;24.63;;;13.90;;
19347;SDS011;9810;52.480;9.806;2024-03-02T06:01:27;22.77;;;13.77;;
19347;SDS011;9810;52.480;9.806;2024-03-02T06:03:55;25.13;;;14.07;;
19347;SDS011;9810;52.480;9.806;2024-03-02T06:06:23;23.77;;;12.80;;
19347;SDS011;9810;52.480;9.806;2024-03-02T06:08:50;23.53;;;13.40;;
19347;SDS011;9810;52.480;9.806;2024-03-02T06:11:18;22.23;;;13.17;;
19347;SDS011;9810;52.480;9.806;2024-03-02T06:13:46;23.47;;;13.10;;
19347;SDS011;9810;52.480;9.806;2024-03-02T06:16:12;24.20;;;14.13;;
19347;SDS011;9810;52.480;9.806;2024-03-02T06:18:41;26.93;;;15.47;;
19347;SDS011;9810;52.480;9.806;2024-03-02T06:21:08;26.77;;;14.97;;
19347;SDS011;9810;52.480;9.806;2024-03-02T06:23:35;28.80;;;15.03;;
19347;SDS011;9810;52.480;9.806;2024-03-02T06:26:02;23.93;;;14.70;;
19347;SDS011;9810;52.480;9.806;2024-03-02T06:28:29;24.27;;;14.17;;
19347;SDS011;9810;52.480;9.806;2024-03-02T06:30:56;25.63;;;14.60;;
19347;SDS011;9810;52.480;9.806;2024-03-02T06:33:23;23.97;;;14.07;;
19347;SDS011;9810;52.480;9.806;2024-03-02T06:35:51;25.87;;;14.43;;
19347;SDS011;9810;52.480;9.806;2024-03-02T06:38:18;25.60;;;13.77;;
19347;SDS011;9810;52.480;9.806;2024-03-02T06:40:45;26.90;;;15.30;;
19347;SDS011;9810;52.480;9.806;2024-03-02T06:43:12;26.83;;;15.27;;
19347;SDS011;9810;52.480;9.806;2024-03-02T06:45:39;31.20;;;15.23;;
19347;SDS011;9810;52.480;9.806;2024-03-02T06:48:06;29.33;;;16.07;;
19347;SDS011;9810;52.480;9.806;2024-03-02T06:50:33;27.53;;;15.30;;
19347;SDS011;9810;52.480;9.806;2024-03-02T06:53:02;25.03;;;14.27;;
19347;SDS011;9810;52.480;9.806;2024-03-02T06:55:30;23.57;;;14.33;;
19347;SDS011;9810;52.480;9.806;2024-03-02T06:57:57;24.27;;;13.63;;
19347;SDS011;9810;52.480;9.806;2024-03-02T07:00:24;25.83;;;14.33;;
19347;SDS011;9810;52.480;9.806;2024-03-02T07:02:51;25.80;;;14.80;;
19347;SDS011;9810;52.480;9.806;2024-03-02T07:05:18;25.33;;;13.90;;
19347;SDS011;9810;52.480;9.806;2024-03-02T07:07:47;26.10;;;16.13;;
19347;SDS011;9810;52.480;9.806;2024-03-02T07:10:16;27.57;;;14.30;;
19347;SDS011;9810;52.480;9.806;2024-03-02T07:12:43;26.33;;;14.63;;
19347;SDS011;9810;52.480;9.806;2024-03-02T07:15:10;26.03;;;15.27;;
19347;SDS011;9810;52.480;9.806;2024-03-02T07:17:46;25.90;;;14.23;;
19347;SDS011;9810;52.480;9.806;2024-03-02T07:20:13;25.20;;;14.83;;
19347;SDS011;9810;52.480;9.806;2024-03-02T07:22:40;23.40;;;13.37;;
19347;SDS011;9810;52.480;9.806;2024-03-02T07:25:07;27.73;;;14.00;;
19347;SDS011;9810;52.480;9.806;2024-03-02T07:27:36;24.87;;;13.97;;
19347;SDS011;9810;52.480;9.806;2024-03-02T07:30:03;26.83;;;14.27;;
19347;SDS011;9810;52.480;9.806;2024-03-02T07:32:31;26.87;;;13.73;;
19347;SDS011;9810;52.480;9.806;2024-03-02T07:34:58;23.07;;;13.83;;
19347;SDS011;9810;52.480;9.806;2024-03-02T07:37:26;22.80;;;13.67;;
19347;SDS011;9810;52.480;9.806;2024-03-02T07:39:53;24.83;;;13.60;;
19347;SDS011;9810;52.480;9.806;2024-03-02T07:42:20;20.03;;;11.63;;
19347;SDS011;9810;52.480;9.806;2024-03-02T07:44:49;27.60;;;13.63;;
19347;SDS011;9810;52.480;9.806;2024-03-02T07:47:16;22.70;;;13.53;;
19347;SDS011;9810;52.480;9.806;2024-03-02T07:49:44;23.97;;;13.30;;
19347;SDS011;9810;52.480;9.806;2024-03-02T07:52:11;27.20;;;13.40;;
19347;SDS011;9810;52.480;9.806;2024-03-02T07:54:38;22.40;;;12.83;;
19347;SDS011;9810;52.480;9.806;2024-03-02T07:57:05;23.87;;;12.83;;
19347;SDS011;9810;52.480;9.806;2024-03-02T07:59:33;23.97;;;14.03;;
19347;SDS011;9810;52.480;9.806;2024-03-02T08:02:06;21.97;;;12.93;;
19347;SDS011;9810;52.480;9.806;2024-03-02T08:04:33;21.37;;;12.13;;
19347;SDS011;9810;52.480;9.806;2024-03-02T08:07:01;23.60;;;13.00;;
19347;SDS011;9810;52.480;9.806;2024-03-02T08:09:28;22.57;;;12.47;;
19347;SDS011;9810;52.480;9.806;2024-03-02T08:11:55;23.33;;;11.93;;
19347;SDS011;9810;52.480;9.806;2024-03-02T08:14:22;18.70;;;12.27;;
19347;SDS011;9810;52.480;9.806;2024-03-02T08:16:49;22.60;;;13.37;;
19347;SDS011;9810;52.480;9.806;2024-03-02T08:19:18;23.07;;;13.13;;
19347;SDS011;9810;52.480;9.806;2024-03-02T08:21:45;24.63;;;14.50;;
19347;SDS011;9810;52.480;9.806;2024-03-02T08:24:12;20.63;;;12.97;;
19347;SDS011;9810;52.480;9.806;2024-03-02T08:26:39;26.33;;;14.07;;
19347;SDS011;9810;52.480;9.806;2024-03-02T08:29:07;21.23;;;13.80;;
19347;SDS011;9810;52.480;9.806;2024-03-02T08:31:34;19.60;;;13.30;;
19347;SDS011;9810;52.480;9.806;2024-03-02T08:34:01;26.77;;;13.77;;
19347;SDS011;9810;52.480;9.806;2024-03-02T08:36:29;22.40;;;12.93;;
19347;SDS011;9810;52.480;9.806;2024-03-02T08:38:56;18.80;;;11.50;;
19347;SDS011;9810;52.480;9.806;2024-03-02T08:41:23;22.17;;;12.60;;
19347;SDS011;9810;52.480;9.806;2024-03-02T08:43:50;18.23;;;11.27;;
19347;SDS011;9810;52.480;9.806;2024-03-02T08:46:17;20.30;;;11.67;;
19347;SDS011;9810;52.480;9.806;2024-03-02T08:48:44;19.80;;;11.40;;
19347;SDS011;9810;52.480;9.806;2024-03-02T08:51:11;17.70;;;10.17;;
19347;SDS011;9810;52.480;9.806;2024-03-02T08:53:39;23.03;;;12.30;;
19347;SDS011;9810;52.480;9.806;2024-03-02T08:56:07;15.90;;;10.43;;
19347;SDS011;9810;52.480;9.806;2024-03-02T08:58:34;14.17;;;9.70;;
19347;SDS011;9810;52.480;9.806;2024-03-02T09:01:01;20.90;;;11.80;;
19347;SDS011;9810;52.480;9.806;2024-03-02T09:03:28;16.77;;;10.20;;
19347;SDS011;9810;52.480;9.806;2024-03-02T09:05:58;16.80;;;9.80;;
19347;SDS011;9810;52.480;9.806;2024-03-02T09:08:25;14.67;;;9.73;;
19347;SDS011;9810;52.480;9.806;2024-03-02T09:10:54;15.17;;;9.03;;
19347;SDS011;9810;52.480;9.806;2024-03-02T09:13:21;14.57;;;9.50;;
19347;SDS011;9810;52.480;9.806;2024-03-02T09:15:48;12.40;;;8.97;;
19347;SDS011;9810;52.480;9.806;2024-03-02T09:18:15;16.17;;;8.93;;
19347;SDS011;9810;52.480;9.806;2024-03-02T09:20:42;15.47;;;8.50;;
19347;SDS011;9810;52.480;9.806;2024-03-02T09:23:09;14.57;;;8.73;;
19347;SDS011;9810;52.480;9.806;2024-03-02T09:25:36;12.23;;;8.70;;
19347;SDS011;9810;52.480;9.806;2024-03-02T09:28:05;15.60;;;9.07;;
19347;SDS011;9810;52.480;9.806;2024-03-02T09:30:32;15.23;;;8.63;;
19347;SDS011;9810;52.480;9.806;2024-03-02T09:32:59;12.67;;;8.10;;
19347;SDS011;9810;52.480;9.806;2024-03-02T09:35:29;15.07;;;8.27;;
19347;SDS011;9810;52.480;9.806;2024-03-02T09:37:56;14.13;;;7.50;;
19347;SDS011;9810;52.480;9.806;2024-03-02T09:40:23;12.63;;;7.97;;
19347;SDS011;9810;52.480;9.806;2024-03-02T09:42:50;12.90;;;8.00;;
19347;SDS011;9810;52.480;9.806;2024-03-02T09:45:20;14.73;;;8.37;;
19347;SDS011;9810;52.480;9.806;2024-03-02T09:47:49;9.63;;;6.77;;
19347;SDS011;9810;52.480;9.806;2024-03-02T09:50:17;13.60;;;7.63;;
19347;SDS011;9810;52.480;9.806;2024-03-02T09:52:44;14.13;;;7.83;;
19347;SDS011;9810;52.480;9.806;2024-03-02T09:55:14;11.30;;;7.10;;
19347;SDS011;9810;52.480;9.806;2024-03-02T09:57:42;15.07;;;9.53;;
19347;SDS011;9810;52.480;9.806;2024-03-02T10:00:12;17.47;;;8.00;;
19347;SDS011;9810;52.480;9.806;2024-03-02T10:02:42;9.67;;;6.30;;
19347;SDS011;9810;52.480;9.806;2024-03-02T10:05:09;12.27;;;7.13;;
19347;SDS011;9810;52.480;9.806;2024-03-02T10:07:37;10.50;;;6.87;;
19347;SDS011;9810;52.480;9.806;2024-03-02T10:10:13;14.00;;;7.30;;
19347;SDS011;9810;52.480;9.806;2024-03-02T10:12:41;13.53;;;7.33;;
19347;SDS011;9810;52.480;9.806;2024-03-02T10:15:08;11.47;;;7.10;;
19347;SDS011;9810;52.480;9.806;2024-03-02T10:17:37;12.30;;;7.60;;
19347;SDS011;9810;52.480;9.806;2024-03-02T10:20:22;15.50;;;6.83;;
19347;SDS011;9810;52.480;9.806;2024-03-02T10:22:54;12.17;;;6.77;;
19347;SDS011;9810;52.480;9.806;2024-03-02T10:25:28;12.23;;;6.97;;
19347;SDS011;9810;52.480;9.806;2024-03-02T10:27:56;11.67;;;6.80;;
19347;SDS011;9810;52.480;9.806;2024-03-02T10:30:24;14.07;;;6.37;;
19347;SDS011;9810;52.480;9.806;2024-03-02T10:32:52;12.57;;;6.70;;
19347;SDS011;9810;52.480;9.806;2024-03-02T10:35:22;9.10;;;6.07;;
19347;SDS011;9810;52.480;9.806;2024-03-02T10:37:51;10.83;;;6.20;;
19347;SDS011;9810;52.480;9.806;2024-03-02T10:40:21;11.47;;;6.67;;
19347;SDS011;9810;52.480;9.806;2024-03-02T10:42:49;10.43;;;7.07;;
19347;SDS011;9810;52.480;9.806;2024-03-02T10:45:17;9.60;;;6.00;;
19347;SDS011;9810;52.480;9.806;2024-03-02T10:47:47;10.70;;;6.23;;
19347;SDS011;9810;52.480;9.806;2024-03-02T10:50:14;9.77;;;6.00;;
19347;SDS011;9810;52.480;9.806;2024-03-02T10:52:42;10.47;;;6.43;;
19347;SDS011;9810;52.480;9.806;2024-03-02T10:55:09;12.43;;;7.37;;
19347;SDS011;9810;52.480;9.806;2024-03-02T10:57:40;10.33;;;5.70;;
19347;SDS011;9810;52.480;9.806;2024-03-02T11:00:11;8.80;;;5.57;;
19347;SDS011;9810;52.480;9.806;2024-03-02T11:02:42;9.03;;;5.67;;
19347;SDS011;9810;52.480;9.806;2024-03-02T11:05:13;10.90;;;5.53;;
19347;SDS011;9810;52.480;9.806;2024-03-02T11:07:45;11.10;;;5.93;;
19347;SDS011;9810;52.480;9.806;2024-03-02T11:10:12;8.63;;;5.20;;
19347;SDS011;9810;52.480;9.806;2024-03-02T11:12:43;11.50;;;5.20;;
19347;SDS011;9810;52.480;9.806;2024-03-02T11:15:18;6.57;;;4.63;;
19347;SDS011;9810;52.480;9.806;2024-03-02T11:17:47;10.87;;;4.73;;
19347;SDS011;9810;52.480;9.806;2024-03-02T11:20:15;11.90;;;5.33;;
19347;SDS011;9810;52.480;9.806;2024-03-02T11:22:45;10.20;;;5.47;;
19347;SDS011;9810;52.480;9.806;2024-03-02T11:25:22;8.53;;;5.07;;
19347;SDS011;9810;52.480;9.806;2024-03-02T11:28:04;9.33;;;4.70;;
19347;SDS011;9810;52.480;9.806;2024-03-02T11:30:50;8.43;;;5.00;;
19347;SDS011;9810;52.480;9.806;2024-03-02T11:33:24;7.97;;;3.73;;
19347;SDS011;9810;52.480;9.806;2024-03-02T11:35:55;5.50;;;3.87;;
19347;SDS011;9810;52.480;9.806;2024-03-02T11:38:28;6.90;;;4.03;;
19347;SDS011;9810;52.480;9.806;2024-03-02T11:40:57;4.73;;;3.30;;
19347;SDS011;9810;52.480;9.806;2024-03-02T11:43:26;6.60;;;3.93;;
19347;SDS011;9810;52.480;9.806;2024-03-02T11:45:57;5.27;;;3.53;;
19347;SDS011;9810;52.480;9.806;2024-03-02T11:48:25;6.30;;;3.53;;
19347;SDS011;9810;52.480;9.806;2024-03-02T11:50:52;5.35;;;3.10;;
19347;SDS011;9810;52.480;9.806;2024-03-02T11:53:20;6.63;;;3.97;;
19347;SDS011;9810;52.480;9.806;2024-03-02T11:55:49;5.77;;;3.97;;
19347;SDS011;9810;52.480;9.806;2024-03-02T11:58:18;5.83;;;3.53;;
19347;SDS011;9810;52.480;9.806;2024-03-02T12:00:50;5.93;;;4.27;;
19347;SDS011;9810;52.480;9.806;2024-03-02T12:03:17;6.00;;;3.83;;
19347;SDS011;9810;52.480;9.806;2024-03-02T12:05:47;9.30;;;5.83;;
19347;SDS011;9810;52.480;9.806;2024-03-02T12:08:15;12.07;;;5.57;;
19347;SDS011;9810;52.480;9.806;2024-03-02T12:10:43;9.70;;;6.07;;
19347;SDS011;9810;52.480;9.806;2024-03-02T12:13:24;7.47;;;4.60;;
19347;SDS011;9810;52.480;9.806;2024-03-02T12:15:52;10.97;;;4.73;;
19347;SDS011;9810;52.480;9.806;2024-03-02T12:18:21;11.17;;;6.07;;
19347;SDS011;9810;52.480;9.806;2024-03-02T12:20:48;7.20;;;4.43;;
19347;SDS011;9810;52.480;9.806;2024-03-02T12:23:17;11.17;;;6.17;;
19347;SDS011;9810;52.480;9.806;2024-03-02T12:25:44;8.70;;;4.97;;
19347;SDS011;9810;52.480;9.806;2024-03-02T12:28:14;10.50;;;5.57;;
19347;SDS011;9810;52.480;9.806;2024-03-02T12:30:41;10.67;;;5.87;;
19347;SDS011;9810;52.480;9.806;2024-03-02T12:33:08;7.77;;;5.00;;
19347;SDS011;9810;52.480;9.806;2024-03-02T12:35:38;9.50;;;4.47;;
19347;SDS011;9810;52.480;9.806;2024-03-02T12:38:06;8.30;;;5.47;;
19347;SDS011;9810;52.480;9.806;2024-03-02T12:40:33;9.57;;;5.20;;
19347;SDS011;9810;52.480;9.806;2024-03-02T12:43:02;8.10;;;5.00;;
19347;SDS011;9810;52.480;9.806;2024-03-02T12:45:31;7.97;;;4.10;;
19347;SDS011;9810;52.480;9.806;2024-03-02T12:47:59;5.10;;;3.30;;
19347;SDS011;9810;52.480;9.806;2024-03-02T12:50:26;5.47;;;3.67;;
19347;SDS011;9810;52.480;9.806;2024-03-02T12:52:54;4.47;;;3.00;;
19347;SDS011;9810;52.480;9.806;2024-03-02T12:55:21;6.33;;;3.10;;
19347;SDS011;9810;52.480;9.806;2024-03-02T12:57:49;4.97;;;3.50;;
19347;SDS011;9810;52.480;9.806;2024-03-02T13:00:17;6.50;;;4.00;;
19347;SDS011;9810;52.480;9.806;2024-03-02T13:02:47;5.00;;;3.50;;
19347;SDS011;9810;52.480;9.806;2024-03-02T13:05:15;5.70;;;2.87;;
19347;SDS011;9810;52.480;9.806;2024-03-02T13:07:42;5.40;;;3.53;;
19347;SDS011;9810;52.480;9.806;2024-03-02T13:10:10;6.80;;;4.07;;
19347;SDS011;9810;52.480;9.806;2024-03-02T13:12:38;5.17;;;3.80;;
19347;SDS011;9810;52.480;9.806;2024-03-02T13:15:05;8.83;;;4.57;;
19347;SDS011;9810;52.480;9.806;2024-03-02T13:17:34;7.13;;;4.77;;
19347;SDS011;9810;52.480;9.806;2024-03-02T13:20:06;8.17;;;4.33;;
19347;SDS011;9810;52.480;9.806;2024-03-02T13:22:35;11.73;;;6.10;;
19347;SDS011;9810;52.480;9.806;2024-03-02T13:25:06;10.47;;;5.23;;
19347;SDS011;9810;52.480;9.806;2024-03-02T13:27:35;8.70;;;5.57;;
19347;SDS011;9810;52.480;9.806;2024-03-02T13:30:02;7.40;;;4.77;;
19347;SDS011;9810;52.480;9.806;2024-03-02T13:32:30;9.77;;;5.47;;
19347;SDS011;9810;52.480;9.806;2024-03-02T13:34:57;9.10;;;5.57;;
19347;SDS011;9810;52.480;9.806;2024-03-02T13:37:26;9.63;;;5.03;;
19347;SDS011;9810;52.480;9.806;2024-03-02T13:39:53;10.00;;;5.90;;
19347;SDS011;9810;52.480;9.806;2024-03-02T13:42:20;8.13;;;5.33;;
19347;SDS011;9810;52.480;9.806;2024-03-02T13:44:48;9.47;;;4.97;;
19347;SDS011;9810;52.480;9.806;2024-03-02T13:47:16;7.97;;;4.50;;
19347;SDS011;9810;52.480;9.806;2024-03-02T13:49:43;5.23;;;3.30;;
19347;SDS011;9810;52.480;9.806;2024-03-02T13:52:11;5.43;;;3.27;;
19347;SDS011;9810;52.480;9.806;2024-03-02T13:54:41;3.40;;;2.53;;
19347;SDS011;9810;52.480;9.806;2024-03-02T13:57:10;3.83;;;2.70;;
19347;SDS011;9810;52.480;9.806;2024-03-02T13:59:38;4.00;;;2.57;;
19347;SDS011;9810;52.480;9.806;2024-03-02T14:02:05;3.23;;;2.40;;
19347;SDS011;9810;52.480;9.806;2024-03-02T14:04:32;6.33;;;3.60;;
19347;SDS011;9810;52.480;9.806;2024-03-02T14:07:00;5.67;;;3.40;;
19347;SDS011;9810;52.480;9.806;2024-03-02T14:09:28;9.03;;;4.07;;
19347;SDS011;9810;52.480;9.806;2024-03-02T14:11:56;4.23;;;2.83;;
19347;SDS011;9810;52.480;9.806;2024-03-02T14:14:25;6.07;;;3.13;;
19347;SDS011;9810;52.480;9.806;2024-03-02T14:16:52;7.20;;;3.53;;
19347;SDS011;9810;52.480;9.806;2024-03-02T14:19:25;2.93;;;2.20;;
19347;SDS011;9810;52.480;9.806;2024-03-02T14:21:52;2.93;;;1.63;;
19347;SDS011;9810;52.480;9.806;2024-03-02T14:24:19;3.20;;;1.30;;
19347;SDS011;9810;52.480;9.806;2024-03-02T14:26:49;3.37;;;1.80;;
19347;SDS011;9810;52.480;9.806;2024-03-02T14:29:17;2.73;;;1.63;;
19347;SDS011;9810;52.480;9.806;2024-03-02T14:31:44;4.23;;;2.10;;
19347;SDS011;9810;52.480;9.806;2024-03-02T14:34:13;3.20;;;1.60;;
19347;SDS011;9810;52.480;9.806;2024-03-02T14:36:40;1.97;;;1.73;;
19347;SDS011;9810;52.480;9.806;2024-03-02T14:39:08;4.07;;;2.60;;
19347;SDS011;9810;52.480;9.806;2024-03-02T14:41:35;2.97;;;1.67;;
19347;SDS011;9810;52.480;9.806;2024-03-02T14:44:02;3.13;;;2.00;;
19347;SDS011;9810;52.480;9.806;2024-03-02T14:46:31;3.53;;;1.90;;
19347;SDS011;9810;52.480;9.806;2024-03-02T14:48:58;2.20;;;1.63;;